createdAt,value
2022-07-29T00:01:19.152Z,7.10
2022-07-29T00:04:11.605Z,5.90
2022-07-29T00:07:06.081Z,4.93
2022-07-29T00:10:00.285Z,3.90
2022-07-29T00:12:54.927Z,4.88
2022-07-29T00:15:50.090Z,5.37
2022-07-29T00:18:44.820Z,5.65
2022-07-29T00:21:45.464Z,8.20
2022-07-29T00:24:40.429Z,4.47
2022-07-29T00:27:34.749Z,4.93
2022-07-29T00:30:29.976Z,5.13
2022-07-29T00:33:29.399Z,6.57
2022-07-29T00:36:23.981Z,5.05
2022-07-29T00:39:29.313Z,4.43
2022-07-29T00:42:28.966Z,4.45
2022-07-29T00:45:24.130Z,5.20
2022-07-29T00:51:39.468Z,4.13
2022-07-29T00:54:34.047Z,3.80
2022-07-29T00:57:47.590Z,6.25
2022-07-29T01:00:45.476Z,5.17
2022-07-29T01:03:39.896Z,3.92
2022-07-29T01:06:34.767Z,7.68
2022-07-29T01:09:42.742Z,5.55
2022-07-29T01:12:43.590Z,4.90
2022-07-29T01:15:49.539Z,4.90
2022-07-29T01:19:03.885Z,4.28
2022-07-29T01:26:04.691Z,6.65
2022-07-29T01:29:29.809Z,3.60
2022-07-29T01:32:50.087Z,4.13
2022-07-29T01:35:47.004Z,5.20
2022-07-29T01:38:42.243Z,7.22
2022-07-29T01:41:40.466Z,3.85
2022-07-29T01:44:37.911Z,4.38
2022-07-29T01:47:33.217Z,4.60
2022-07-29T01:50:33.520Z,3.85
2022-07-29T01:53:34.860Z,6.07
2022-07-29T01:56:33.933Z,4.45
2022-07-29T01:59:29.873Z,4.53
2022-07-29T02:02:27.982Z,5.20
2022-07-29T02:05:24.458Z,4.30
2022-07-29T02:08:22.089Z,7.90
2022-07-29T02:11:17.438Z,4.55
2022-07-29T02:14:09.939Z,5.10
2022-07-29T02:17:07.630Z,9.97
2022-07-29T02:20:05.860Z,4.15
2022-07-29T02:23:01.456Z,6.43
2022-07-29T02:25:56.335Z,7.88
2022-07-29T02:28:52.887Z,7.70
2022-07-29T02:31:48.853Z,4.93
2022-07-29T02:34:46.267Z,4.80
2022-07-29T02:37:41.909Z,4.97
2022-07-29T02:40:36.154Z,7.93
2022-07-29T02:43:31.408Z,4.10
2022-07-29T02:46:28.954Z,5.20
2022-07-29T02:49:43.125Z,6.50
2022-07-29T02:52:44.884Z,5.53
2022-07-29T02:55:45.960Z,4.63
2022-07-29T02:58:47.374Z,5.03
2022-07-29T03:01:45.879Z,5.67
2022-07-29T03:04:39.186Z,4.68
2022-07-29T03:07:34.595Z,6.93
2022-07-29T03:10:30.335Z,5.07
2022-07-29T03:13:28.722Z,5.55
2022-07-29T03:16:26.439Z,4.77
2022-07-29T03:19:20.879Z,5.13
2022-07-29T03:35:42.036Z,9.47
2022-07-29T03:38:37.724Z,7.10
2022-07-29T03:41:38.895Z,5.00
2022-07-29T03:44:34.434Z,6.50
2022-07-29T03:47:43.493Z,5.75
2022-07-29T03:50:46.070Z,7.37
2022-07-29T03:53:41.459Z,4.93
2022-07-29T03:56:34.388Z,5.25
2022-07-29T03:59:36.561Z,8.13
2022-07-29T04:02:31.259Z,5.30
2022-07-29T04:05:25.428Z,11.47
2022-07-29T04:08:19.764Z,6.45
2022-07-29T04:12:03.899Z,5.28
2022-07-29T04:15:16.736Z,6.45
2022-07-29T04:18:11.153Z,6.25
2022-07-29T04:21:05.518Z,7.73
2022-07-29T04:24:14.790Z,4.88
2022-07-29T04:27:29.124Z,6.57
2022-07-29T04:30:23.373Z,7.55
2022-07-29T04:33:17.979Z,6.45
2022-07-29T04:36:28.593Z,8.23
2022-07-29T04:39:23.767Z,10.30
2022-07-29T04:42:27.517Z,6.07
2022-07-29T04:45:35.348Z,9.60
2022-07-29T04:48:33.858Z,7.57
2022-07-29T04:51:34.935Z,7.60
2022-07-29T04:54:31.223Z,5.38
2022-07-29T04:57:30.625Z,8.00
2022-07-29T05:00:33.250Z,8.20
2022-07-29T05:03:31.738Z,7.90
2022-07-29T05:06:29.673Z,7.67
2022-07-29T05:09:33.522Z,7.28
2022-07-29T05:12:33.341Z,9.23
2022-07-29T05:15:44.305Z,9.35
2022-07-29T05:18:43.487Z,8.65
2022-07-29T05:21:41.036Z,8.00
2022-07-29T05:24:45.708Z,5.10
2022-07-29T05:27:45.369Z,6.70
2022-07-29T05:30:51.078Z,7.00
2022-07-29T05:33:43.751Z,7.13
2022-07-29T05:36:40.206Z,5.93
2022-07-29T05:39:47.197Z,10.07
2022-07-29T05:42:43.593Z,5.40
2022-07-29T05:45:49.262Z,7.40
2022-07-29T05:48:44.528Z,7.80
2022-07-29T05:51:42.902Z,5.87
2022-07-29T05:58:19.684Z,6.53
2022-07-29T06:01:15.673Z,6.40
2022-07-29T06:08:09.546Z,8.73
2022-07-29T06:18:59.186Z,10.77
2022-07-29T06:25:13.996Z,11.93
2022-07-29T06:28:09.089Z,11.90
2022-07-29T06:44:37.647Z,11.20
2022-07-29T06:47:38.061Z,10.95
2022-07-29T06:50:38.973Z,8.13
2022-07-29T06:56:42.650Z,15.67
2022-07-29T06:59:38.370Z,10.63
2022-07-29T07:02:39.224Z,11.77
2022-07-29T07:05:35.591Z,10.82
2022-07-29T07:08:38.564Z,9.05
2022-07-29T07:11:46.237Z,9.60
2022-07-29T07:15:07.685Z,9.52
2022-07-29T07:18:08.022Z,9.45
2022-07-29T07:21:10.674Z,11.90
2022-07-29T07:24:29.481Z,11.43
2022-07-29T07:27:32.674Z,9.77
2022-07-29T07:30:48.542Z,15.43
2022-07-29T07:34:29.523Z,10.82
2022-07-29T07:37:44.354Z,12.52
2022-07-29T07:40:40.275Z,8.52
2022-07-29T07:43:39.336Z,12.07
2022-07-29T07:53:21.274Z,13.60
2022-07-29T07:56:42.284Z,11.35
2022-07-29T07:59:48.306Z,10.93
2022-07-29T08:02:44.212Z,9.48
2022-07-29T08:05:59.844Z,12.40
2022-07-29T08:12:47.411Z,10.20
2022-07-29T08:15:59.160Z,10.03
2022-07-29T08:19:01.599Z,8.90
2022-07-29T08:22:02.337Z,8.57
2022-07-29T08:25:10.815Z,12.23
2022-07-29T08:28:11.592Z,8.90
2022-07-29T08:31:06.395Z,9.03
2022-07-29T08:42:21.338Z,11.10
2022-07-29T08:45:27.800Z,8.73
2022-07-29T08:48:24.163Z,7.53
2022-07-29T08:54:37.626Z,7.75
2022-07-29T08:57:37.098Z,10.43
2022-07-29T09:00:41.516Z,7.57
2022-07-29T09:03:56.048Z,7.50
2022-07-29T09:10:52.503Z,9.30
2022-07-29T09:14:02.647Z,8.80
2022-07-29T09:17:43.752Z,10.75
2022-07-29T09:21:17.907Z,9.80
2022-07-29T09:24:28.406Z,8.15
2022-07-29T09:31:18.918Z,8.00
2022-07-29T09:34:25.752Z,7.60
2022-07-29T09:37:47.824Z,8.57
2022-07-29T09:44:37.137Z,9.55
2022-07-29T09:48:13.770Z,9.35
2022-07-29T09:51:15.058Z,9.40
2022-07-29T09:54:40.484Z,10.47
2022-07-29T09:57:51.302Z,10.02
2022-07-29T10:00:57.296Z,10.25
2022-07-29T10:04:10.385Z,8.27
2022-07-29T10:07:20.833Z,8.73
2022-07-29T10:10:57.079Z,8.83
2022-07-29T10:13:58.387Z,8.60
2022-07-29T10:16:53.871Z,8.77
2022-07-29T10:20:00.009Z,6.32
2022-07-29T10:22:55.249Z,8.05
2022-07-29T10:25:55.765Z,7.50
2022-07-29T10:29:00.992Z,7.05
2022-07-29T10:32:43.879Z,9.13
2022-07-29T10:36:19.911Z,7.05
2022-07-29T10:39:25.610Z,6.95
2022-07-29T10:42:38.985Z,9.00
2022-07-29T10:45:42.909Z,8.77
2022-07-29T10:48:43.602Z,8.90
2022-07-29T10:52:10.860Z,10.25
2022-07-29T10:58:52.855Z,7.63
2022-07-29T11:02:27.694Z,8.35
2022-07-29T11:05:32.327Z,9.00
2022-07-29T11:08:44.551Z,9.80
2022-07-29T11:18:32.176Z,11.98
2022-07-29T11:21:51.710Z,10.75
2022-07-29T11:24:57.910Z,8.88
2022-07-29T11:27:55.493Z,10.80
2022-07-29T11:31:07.103Z,9.20
2022-07-29T11:34:28.087Z,10.70
2022-07-29T11:48:48.070Z,8.37
2022-07-29T11:51:32.774Z,8.40
2022-07-29T11:58:56.070Z,10.10
2022-07-29T12:05:58.296Z,10.67
2022-07-29T12:09:40.435Z,11.40
2022-07-29T12:15:52.517Z,10.20
2022-07-29T12:19:02.053Z,12.38
2022-07-29T12:22:12.763Z,9.37
2022-07-29T12:25:33.779Z,12.48
2022-07-29T12:28:40.208Z,11.60
2022-07-29T12:31:49.336Z,12.60
2022-07-29T12:42:29.116Z,14.48
2022-07-29T12:45:27.398Z,15.88
2022-07-29T12:48:55.965Z,12.50
2022-07-29T12:51:58.616Z,12.57
2022-07-29T12:55:03.072Z,13.95
2022-07-29T12:58:08.274Z,16.23
2022-07-29T13:01:17.431Z,16.38
2022-07-29T13:04:30.235Z,16.83
2022-07-29T13:07:55.756Z,14.85
2022-07-29T13:10:54.199Z,13.93
2022-07-29T13:14:10.101Z,13.93
2022-07-29T13:17:25.068Z,14.43
2022-07-29T13:20:23.788Z,15.60
2022-07-29T13:23:18.559Z,13.48
2022-07-29T13:26:24.309Z,15.30
2022-07-29T13:29:18.627Z,14.68
2022-07-29T13:32:16.943Z,14.52
2022-07-29T13:35:13.224Z,13.37
2022-07-29T13:38:08.752Z,10.18
2022-07-29T13:41:03.718Z,10.77
2022-07-29T13:44:00.578Z,11.30
2022-07-29T13:46:55.223Z,8.15
2022-07-29T13:49:49.666Z,9.63
2022-07-29T13:52:48.532Z,9.00
2022-07-29T13:55:43.365Z,10.02
2022-07-29T13:58:38.735Z,7.35
2022-07-29T14:01:33.769Z,7.35
2022-07-29T14:04:32.134Z,7.67
2022-07-29T14:07:28.192Z,6.90
2022-07-29T14:10:25.897Z,6.38
2022-07-29T14:13:25.218Z,5.82
2022-07-29T14:16:23.410Z,5.10
2022-07-29T14:19:17.833Z,6.40
2022-07-29T14:22:21.482Z,6.50
2022-07-29T14:25:21.225Z,8.82
2022-07-29T14:28:18.658Z,8.70
2022-07-29T14:31:13.526Z,8.75
2022-07-29T14:34:11.618Z,8.90
2022-07-29T14:37:06.948Z,6.88
2022-07-29T14:40:03.057Z,8.23
2022-07-29T14:46:21.067Z,7.45
2022-07-29T14:49:20.903Z,6.67
2022-07-29T14:52:15.930Z,10.65
2022-07-29T14:55:19.381Z,11.73
2022-07-29T14:58:16.760Z,11.18
2022-07-29T15:01:09.167Z,9.52
2022-07-29T15:04:09.969Z,8.87
2022-07-29T15:07:10.951Z,11.95
2022-07-29T15:10:05.179Z,12.75
2022-07-29T15:13:02.913Z,14.93
2022-07-29T15:16:00.668Z,15.52
2022-07-29T15:18:58.137Z,15.70
2022-07-29T15:21:59.629Z,16.35
2022-07-29T15:24:54.413Z,17.38
2022-07-29T15:31:29.956Z,19.42
2022-07-29T15:34:41.424Z,21.97
2022-07-29T15:44:02.654Z,18.35
2022-07-29T15:47:10.157Z,20.60
2022-07-29T15:50:04.856Z,17.10
2022-07-29T15:53:28.821Z,20.63
2022-07-29T15:56:29.553Z,19.00
2022-07-29T15:59:23.973Z,18.27
2022-07-29T16:02:21.430Z,18.85
2022-07-29T16:05:32.670Z,20.63
2022-07-29T16:08:33.685Z,18.83
2022-07-29T16:11:40.543Z,18.17
2022-07-29T16:14:36.865Z,19.85
2022-07-29T16:17:32.388Z,20.95
2022-07-29T16:20:27.747Z,18.80
2022-07-29T16:23:31.021Z,20.98
2022-07-29T16:26:25.468Z,20.33
2022-07-29T16:29:19.956Z,20.15
2022-07-29T16:35:48.724Z,18.17
2022-07-29T16:38:47.049Z,11.07
2022-07-29T16:41:42.935Z,7.72
2022-07-29T16:44:45.266Z,5.63
2022-07-29T16:48:00.241Z,6.28
2022-07-29T16:51:21.220Z,5.93
2022-07-29T16:54:27.357Z,5.63
2022-07-29T16:57:22.928Z,6.38
2022-07-29T17:00:30.391Z,6.60
2022-07-29T17:03:30.217Z,5.60
2022-07-29T17:06:29.366Z,4.83
2022-07-29T17:13:06.051Z,4.45
2022-07-29T17:16:16.953Z,4.78
2022-07-29T17:19:16.865Z,5.22
2022-07-29T17:22:21.363Z,6.17
2022-07-29T17:25:21.394Z,4.80
2022-07-29T17:28:16.178Z,6.85
2022-07-29T17:31:12.843Z,9.40
2022-07-29T17:34:09.575Z,6.30
2022-07-29T17:37:10.217Z,8.10
2022-07-29T17:40:05.670Z,8.82
2022-07-29T17:43:05.443Z,6.93
2022-07-29T17:46:06.213Z,7.28
2022-07-29T17:49:07.577Z,6.97
2022-07-29T17:52:18.649Z,8.13
2022-07-29T17:55:17.070Z,8.70
2022-07-29T17:58:45.795Z,9.55
2022-07-29T18:12:16.228Z,6.53
2022-07-29T18:15:24.144Z,7.63
2022-07-29T18:18:26.139Z,6.70
2022-07-29T18:21:42.582Z,6.10
2022-07-29T18:24:46.258Z,5.00
2022-07-29T18:27:58.499Z,5.32
2022-07-29T18:30:55.326Z,4.85
2022-07-29T18:38:00.783Z,4.68
2022-07-29T18:40:55.009Z,4.83
2022-07-29T18:44:21.939Z,4.97
2022-07-29T18:47:20.024Z,7.50
2022-07-29T18:54:13.741Z,5.55
2022-07-29T18:57:53.622Z,5.70
